Augusta, Australia
Current Conditions -  °F | °C
As of 8:00 AM on Monday 24 Nov 2014 (Local Time) from YABA Reporting Station
Broken Clouds Broken Clouds  
Wind Chill: 59°   Ceiling: 4500
Heat Index: 59°   Visibility: 6mi
Dew Point: 41°   Wind: 7mph
Humidity: 51%   Direction: 160°SSE
Pressure: 30.24"   Gusts: NA
Location:  34.32°S, 115.16°E
Report Text: YABA 240000Z 16006KT 9999 BKN045 15/05 Q1024
Loading
Personal Weather Stations






























Interactive Weather Map New forecast layout! Learn more

10-Day Weather Forecast

Advertisements
Track Severe Weather on mobile